Sunday, October 22, 2017, 5:06 PM EDT
Back to Local

KMUI, Muir Army Air Field / Indiantown

Location: Jonestown, PA, United States Lat: 40.433
Local Time: 5:06 PM EDT (21:06 GMT) Lon: -76.567
Time Zone: US/Eastern Elev: 488 ft

Show me the last for .
Show Coded

Time T Td Feel RH Dir Speed Gust Alt SLP Vis Weather Sky Remarks
2017-10-22 14:58 75 44 - 33 140° 5 - 30.32 - 10 CLR None
2017-10-22 13:58 74 45 - 35 150° 7 - 30.34 30.35 10 CLR 6-hr Min Temp (2pm): 43.3°F
6-hr Max Temp (2pm): 73.6°F
2017-10-22 12:58 71 50 76 48 - Calm - 30.36 30.37 10 CLR None
2017-10-22 11:58 67 47 - 49 - Calm - 30.38 30.39 10 CLR None
2017-10-22 10:58 64 46 - 52 50° 3 - 30.39 30.40 10 CLR None
2017-10-22 09:58 57 51 - 79 - Calm - 30.40 30.41 10 CLR None
2017-10-22 08:58 48 48 - 100 - Calm - 30.41 30.42 10 CLR None
2017-10-22 07:58 43 43 - 100 - Calm - 30.40 30.41 10 CLR 6-hr Min Temp (8am): 41.4°F
6-hr Max Temp (8am): 46.2°F
2017-10-22 06:58 42 42 - 100 - Calm - 30.38 30.39 10 CLR None
2017-10-22 05:58 42 42 - 100 - Calm - 30.38 30.39 10 CLR None
2017-10-22 04:58 44 44 - 100 - Calm - 30.36 30.37 10 CLR None
2017-10-22 03:58 44 44 - 100 - Calm - 30.35 30.36 10 CLR None
2017-10-22 02:58 45 45 - 100 - Calm - 30.35 30.36 10 CLR None
2017-10-22 01:58 46 46 - 100 - Calm - 30.35 30.36 10 CLR 6-hr Min Temp (2am): 45.9°F
6-hr Max Temp (2am): 54.5°F
2017-10-22 00:58 46 46 - 100 - Calm - 30.35 30.36 10 CLR 24-hr Min Temp (1am): 38.1°F
24-hr Max Temp (1am): 74.7°F
2017-10-21 22:58 48 48 - 100 - Calm - 30.36 30.37 10 CLR None
2017-10-21 21:58 51 49 - 95 - Calm - 30.36 30.37 10 CLR None
2017-10-21 20:58 53 51 - 91 - Calm - 30.36 30.37 10 CLR None
2017-10-21 19:58 56 49 - 78 - Calm - 30.34 30.35 10 CLR 6-hr Min Temp (8pm): 55.4°F
6-hr Max Temp (8pm): 74.7°F
2017-10-21 18:58 58 50 - 74 - Calm - 30.34 30.35 10 CLR None
2017-10-21 17:58 63 53 - 67 - Calm - 30.32 30.33 10 CLR None

Support USWX by starting your Amazon purchase here.